Time;durP1;ratioP1;P1;durP2;ratioP2;P2;SDS_P1;SDS_P2;PMS_P1;PMS_P2;Temp;Humidity;BMP_temperature;BMP_pressure;BME280_temperature;BME280_humidity;BME280_pressure;Samples;Min_cycle;Max_cycle;Signal;HPM_P1;HPM_P2
2021/09/06 00:00:12;;;;;;;8.48;4.30;;;;;;;9.76;67.58;101027.59;4989670;28;106238;-69
2021/09/06 00:02:38;;;;;;;10.15;4.35;;;;;;;9.74;67.59;101024.22;4986898;28;105906;-68
2021/09/06 00:05:06;;;;;;;6.93;3.80;;;;;;;9.71;67.39;101035.16;4989432;28;105981;-69
2021/09/06 00:07:32;;;;;;;5.22;3.20;;;;;;;9.68;67.66;101035.44;4990351;28;106007;-69
2021/09/06 00:10:13;;;;;;;8.55;3.55;;;;;;;9.65;67.80;101035.75;4989714;28;106156;-69
2021/09/06 00:12:38;;;;;;;7.93;3.58;;;;;;;9.60;67.73;101024.69;4987546;28;106208;-69
2021/09/06 00:15:05;;;;;;;6.78;3.72;;;;;;;9.58;67.98;101029.28;4989761;28;105953;-67
2021/09/06 00:17:30;;;;;;;4.75;3.30;;;;;;;9.57;68.07;101032.97;4990645;28;105823;-69
2021/09/06 00:19:55;;;;;;;4.55;3.20;;;;;;;9.54;68.21;101017.25;4989666;28;106220;-67
2021/09/06 00:22:20;;;;;;;5.15;3.10;;;;;;;9.51;68.20;101029.03;4989372;28;112868;-68
2021/09/06 00:24:46;;;;;;;14.40;3.40;;;;;;;9.47;68.23;101027.63;4989796;28;108348;-68
2021/09/06 00:27:11;;;;;;;5.60;3.03;;;;;;;9.44;68.41;101023.44;4990733;28;106027;-68
2021/09/06 00:29:36;;;;;;;7.10;3.97;;;;;;;9.42;68.16;101021.94;4989833;28;106127;-69
2021/09/06 00:32:04;;;;;;;6.13;3.55;;;;;;;9.40;68.30;101019.38;4988166;28;106056;-68
2021/09/06 00:34:29;;;;;;;7.22;3.42;;;;;;;9.39;68.25;101024.84;4989069;28;105896;-68
2021/09/06 00:36:55;;;;;;;7.82;4.35;;;;;;;9.36;68.39;101019.81;4990255;28;106170;-70
2021/09/06 00:39:20;;;;;;;5.50;3.55;;;;;;;9.31;68.34;101022.91;4988908;28;106293;-69
2021/09/06 00:41:45;;;;;;;6.88;3.35;;;;;;;9.26;68.45;101020.66;4988969;28;108049;-66
2021/09/06 00:44:11;;;;;;;7.00;3.90;;;;;;;9.23;68.64;101018.28;4987410;28;105993;-70
2021/09/06 00:46:36;;;;;;;6.30;3.78;;;;;;;9.21;68.70;101022.06;4989704;28;105985;-68
2021/09/06 00:49:02;;;;;;;6.57;3.22;;;;;;;9.19;69.00;101024.88;4988521;28;106242;-69
2021/09/06 00:51:27;;;;;;;9.23;3.75;;;;;;;9.15;69.04;101018.16;4988621;28;107855;-70
2021/09/06 00:53:52;;;;;;;9.23;3.90;;;;;;;9.11;69.19;101016.75;4988615;28;106377;-69
2021/09/06 00:56:18;;;;;;;5.78;3.45;;;;;;;9.10;69.04;101017.72;4989415;28;105930;-68
2021/09/06 00:58:44;;;;;;;5.38;3.83;;;;;;;9.07;68.85;101026.81;4988889;28;106632;-70
2021/09/06 01:01:10;;;;;;;7.07;4.13;;;;;;;9.03;68.96;101022.75;4988513;28;106381;-68
2021/09/06 01:03:35;;;;;;;5.70;3.88;;;;;;;8.97;69.59;101020.69;4988369;28;105923;-69
2021/09/06 01:06:01;;;;;;;7.22;3.92;;;;;;;8.93;69.65;101014.78;4856444;28;106369;-68
2021/09/06 01:08:27;;;;;;;8.02;3.90;;;;;;;8.90;69.54;101024.84;4914412;28;106264;-67
2021/09/06 01:10:53;;;;;;;6.53;3.75;;;;;;;8.85;69.74;101021.78;4914610;28;105950;-66
2021/09/06 01:13:18;;;;;;;5.53;3.50;;;;;;;8.81;69.79;101013.25;4910432;28;106852;-67
2021/09/06 01:15:43;;;;;;;6.93;3.50;;;;;;;8.75;69.82;101012.00;4911560;28;106443;-66
2021/09/06 01:18:09;;;;;;;6.70;3.60;;;;;;;8.72;69.45;101017.59;4911225;28;106196;-66
2021/09/06 01:20:34;;;;;;;6.78;3.42;;;;;;;8.68;70.27;101017.97;4910428;28;107291;-67
2021/09/06 01:23:00;;;;;;;6.25;4.18;;;;;;;8.66;70.34;101012.81;4910796;28;106069;-66
2021/09/06 01:25:25;;;;;;;7.18;3.92;;;;;;;8.61;69.71;101009.72;4911633;28;105991;-67
2021/09/06 01:27:51;;;;;;;6.43;3.92;;;;;;;8.59;70.22;101015.16;4911146;28;106209;-67
2021/09/06 01:30:16;;;;;;;6.63;3.95;;;;;;;8.56;70.64;101014.63;4910179;28;114421;-66
2021/09/06 01:32:42;;;;;;;4.97;3.20;;;;;;;8.54;69.93;101011.25;4910567;28;105994;-65
2021/09/06 01:35:08;;;;;;;5.63;3.70;;;;;;;8.51;70.67;101008.88;4911498;28;106080;-67
2021/09/06 01:37:33;;;;;;;5.03;3.22;;;;;;;8.48;70.31;101012.63;4909863;28;106211;-67
2021/09/06 01:39:59;;;;;;;7.25;3.33;;;;;;;8.46;70.85;101007.47;4910614;28;106718;-67
2021/09/06 01:42:25;;;;;;;7.75;3.67;;;;;;;8.45;70.78;101004.97;4909847;28;105906;-67
2021/09/06 01:44:50;;;;;;;5.53;3.25;;;;;;;8.42;70.84;101007.81;4911192;28;105980;-66
2021/09/06 01:47:16;;;;;;;6.75;3.83;;;;;;;8.40;70.50;101012.44;4910399;28;106698;-67
2021/09/06 01:49:41;;;;;;;9.75;4.60;;;;;;;8.37;71.14;101007.41;4910105;28;105973;-66
2021/09/06 01:52:06;;;;;;;7.25;3.78;;;;;;;8.35;70.65;101012.00;4909664;28;106472;-67
2021/09/06 01:54:32;;;;;;;5.95;3.67;;;;;;;8.29;70.54;101000.94;4910854;28;106398;-65
2021/09/06 01:56:57;;;;;;;5.72;3.90;;;;;;;8.26;71.35;101006.53;4910414;28;106295;-67
2021/09/06 01:59:23;;;;;;;6.13;3.70;;;;;;;8.24;71.38;101005.00;4909644;28;106121;-67
2021/09/06 02:01:48;;;;;;;7.20;3.85;;;;;;;8.19;71.72;100999.25;4909778;28;106116;-67
2021/09/06 02:04:14;;;;;;;6.05;3.60;;;;;;;8.17;71.71;101007.34;4910842;28;106007;-67
2021/09/06 02:06:39;;;;;;;5.68;3.58;;;;;;;8.13;71.95;101001.47;4910027;28;106179;-67
2021/09/06 02:09:05;;;;;;;6.28;3.60;;;;;;;8.09;71.59;101010.69;4909996;28;106580;-67
2021/09/06 02:11:30;;;;;;;7.18;3.70;;;;;;;8.07;71.49;101011.78;4908321;28;105936;-68
2021/09/06 02:13:55;;;;;;;8.32;3.78;;;;;;;8.05;72.12;101009.28;4910459;28;106023;-68
2021/09/06 02:16:21;;;;;;;10.05;4.18;;;;;;;8.05;71.88;101008.41;4909867;28;106223;-68
2021/09/06 02:18:47;;;;;;;13.60;4.40;;;;;;;8.05;72.40;101013.72;4909267;28;108028;-67
2021/09/06 02:21:13;;;;;;;7.10;4.50;;;;;;;8.03;71.71;101011.22;4909725;28;105682;-68
2021/09/06 02:23:38;;;;;;;6.63;4.20;;;;;;;8.03;72.38;101010.38;4910212;28;105963;-68
2021/09/06 02:26:03;;;;;;;7.57;4.07;;;;;;;8.00;71.75;101014.13;4912849;28;105729;-67
2021/09/06 02:28:29;;;;;;;5.93;4.15;;;;;;;7.97;72.02;101009.09;4912917;28;105790;-67
2021/09/06 02:30:54;;;;;;;10.57;4.28;;;;;;;7.93;72.10;101016.47;4913027;28;106003;-67
2021/09/06 02:33:19;;;;;;;7.07;4.47;;;;;;;7.90;72.31;101018.53;4913928;28;107156;-67
2021/09/06 02:35:45;;;;;;;6.90;4.25;;;;;;;7.87;72.23;101011.69;4913092;28;106186;-67
2021/09/06 02:38:10;;;;;;;10.63;5.10;;;;;;;7.84;72.27;101011.97;4912554;28;106224;-67
2021/09/06 02:40:35;;;;;;;7.95;4.70;;;;;;;7.82;72.86;101005.09;4912413;28;106447;-67
2021/09/06 02:43:01;;;;;;;7.70;4.20;;;;;;;7.81;72.33;101008.75;4913606;28;105877;-66
2021/09/06 02:45:26;;;;;;;6.50;4.35;;;;;;;7.78;73.19;101008.03;4912713;28;106250;-67
2021/09/06 02:47:51;;;;;;;8.82;4.65;;;;;;;7.76;73.23;101007.34;4912434;28;105946;-66
2021/09/06 02:50:17;;;;;;;8.02;4.72;;;;;;;7.75;72.69;101015.41;4912328;28;105992;-66
2021/09/06 02:52:42;;;;;;;6.18;4.47;;;;;;;7.69;72.58;101008.81;4913027;28;105976;-67
2021/09/06 02:55:08;;;;;;;7.43;4.45;;;;;;;7.67;72.92;101013.41;4912539;28;106180;-66
2021/09/06 02:57:33;;;;;;;6.05;4.30;;;;;;;7.60;73.15;101010.44;4913130;28;106885;-66
2021/09/06 02:59:59;;;;;;;9.95;4.30;;;;;;;7.57;73.12;101007.22;4912290;28;106379;-67
2021/09/06 03:02:24;;;;;;;8.25;4.35;;;;;;;7.52;73.52;101012.91;4913049;28;106390;-66
2021/09/06 03:04:49;;;;;;;12.77;5.60;;;;;;;7.48;73.13;101010.63;4912178;28;106149;-66
2021/09/06 03:07:15;;;;;;;7.13;4.45;;;;;;;7.45;73.29;101001.16;4911875;28;106037;-66
2021/09/06 03:09:40;;;;;;;6.82;4.70;;;;;;;7.42;73.29;101007.56;4912064;28;106031;-67
2021/09/06 03:12:06;;;;;;;9.25;4.95;;;;;;;7.39;73.34;100999.84;4912764;28;106344;-66
2021/09/06 03:14:32;;;;;;;5.85;4.53;;;;;;;7.37;73.79;101000.97;4912061;28;105848;-67
2021/09/06 03:16:57;;;;;;;12.40;4.85;;;;;;;7.36;74.16;101000.09;4911981;28;105809;-66
2021/09/06 03:19:22;;;;;;;12.02;5.00;;;;;;;7.35;73.62;100995.75;4911579;28;105816;-68
2021/09/06 03:21:48;;;;;;;7.05;4.40;;;;;;;7.34;74.15;101010.00;4912557;28;105900;-65
2021/09/06 03:24:13;;;;;;;12.50;4.82;;;;;;;7.33;74.27;101012.78;4912138;28;105725;-66
2021/09/06 03:26:38;;;;;;;11.00;5.13;;;;;;;7.30;74.47;101011.25;4911957;28;105863;-67
2021/09/06 03:29:04;;;;;;;14.18;5.30;;;;;;;7.26;73.95;101015.94;4911630;28;105821;-65
2021/09/06 03:31:32;;;;;;;8.35;5.32;;;;;;;7.24;74.13;101015.22;4912366;28;105912;-66
2021/09/06 03:33:59;;;;;;;12.88;5.60;;;;;;;7.21;74.11;101017.31;4911997;28;106190;-69
2021/09/06 03:36:24;;;;;;;19.15;6.85;;;;;;;7.19;74.72;101016.56;4911602;28;106204;-67
2021/09/06 03:38:51;;;;;;;17.65;5.40;;;;;;;7.17;74.66;101018.53;4911212;28;106067;-67
2021/09/06 03:41:17;;;;;;;18.80;6.60;;;;;;;7.17;74.58;101015.88;4912641;28;105959;-67
2021/09/06 03:43:42;;;;;;;15.85;5.43;;;;;;;7.17;74.83;101013.22;4911997;28;106169;-68
2021/09/06 03:46:07;;;;;;;12.32;5.53;;;;;;;7.16;75.13;101006.22;4911957;28;106017;-69
2021/09/06 03:48:33;;;;;;;15.38;5.47;;;;;;;7.16;74.89;101006.22;4911379;28;106021;-67
2021/09/06 03:50:58;;;;;;;10.52;5.40;;;;;;;7.16;75.23;101015.00;4912679;28;106082;-66
2021/09/06 03:53:23;;;;;;;11.63;5.75;;;;;;;7.13;74.64;101012.63;4911718;28;106290;-69
2021/09/06 03:55:49;;;;;;;17.65;5.30;;;;;;;7.11;74.71;101015.41;4911486;28;106264;-68
2021/09/06 03:58:14;;;;;;;10.85;5.40;;;;;;;7.08;75.07;101010.38;4911283;28;105867;-70
2021/09/06 04:00:39;;;;;;;10.23;5.22;;;;;;;7.07;74.67;101007.84;4912122;28;106080;-69
2021/09/06 04:03:05;;;;;;;9.75;5.75;;;;;;;7.06;74.85;101000.88;4911626;28;106128;-68
2021/09/06 04:05:30;;;;;;;7.57;5.72;;;;;;;7.04;74.90;101008.94;4911295;28;105930;-66
2021/09/06 04:07:56;;;;;;;9.18;5.22;;;;;;;7.03;75.14;101012.56;4911854;28;106380;-68
2021/09/06 04:10:21;;;;;;;10.90;5.63;;;;;;;7.00;75.05;101007.53;4911993;28;106007;-67
2021/09/06 04:12:46;;;;;;;13.13;5.43;;;;;;;7.00;75.18;101007.53;4911334;28;106172;-67
2021/09/06 04:15:13;;;;;;;10.38;5.60;;;;;;;7.00;75.80;101012.81;4911040;28;110147;-67
2021/09/06 04:17:38;;;;;;;10.23;7.88;;;;;;;7.01;75.77;101013.66;4910778;28;106134;-68
2021/09/06 04:20:05;;;;;;;20.35;11.88;;;;;;;7.01;75.30;101017.16;4910570;28;105981;-67
2021/09/06 04:22:30;;;;;;;14.75;10.15;;;;;;;7.03;75.11;101014.38;4911146;28;106012;-67
2021/09/06 04:24:56;;;;;;;15.55;9.77;;;;;;;7.03;75.70;101017.84;4910494;28;106170;-69
2021/09/06 04:27:21;;;;;;;11.55;7.95;;;;;;;7.05;76.01;101013.28;4910807;28;105959;-67
2021/09/06 04:29:46;;;;;;;13.98;7.80;;;;;;;7.09;75.49;101017.38;4911169;28;105967;-67
2021/09/06 04:32:12;;;;;;;11.85;7.85;;;;;;;7.13;76.08;101012.63;4911137;28;105848;-67
2021/09/06 04:34:37;;;;;;;15.85;8.23;;;;;;;7.19;75.93;101016.56;4911215;28;106505;-66
2021/09/06 04:37:04;;;;;;;12.63;8.38;;;;;;;7.25;75.64;101021.38;4910894;28;105714;-67
2021/09/06 04:39:30;;;;;;;9.98;8.32;;;;;;;7.32;76.17;101027.00;4909801;28;106453;-66
2021/09/06 04:41:55;;;;;;;14.35;8.90;;;;;;;7.39;76.01;101028.16;4908332;28;106605;-67
2021/09/06 04:44:20;;;;;;;16.92;11.25;;;;;;;7.44;76.23;101026.81;4908336;28;106360;-67
2021/09/06 04:46:46;;;;;;;17.30;13.15;;;;;;;7.55;76.23;101038.31;4907634;28;109241;-67
2021/09/06 04:49:12;;;;;;;11.50;10.02;;;;;;;7.63;76.40;101035.88;4906950;28;106533;-66
2021/09/06 04:51:37;;;;;;;12.93;8.32;;;;;;;7.73;76.27;101043.88;4908431;28;106896;-66
2021/09/06 04:54:02;;;;;;;13.02;6.75;;;;;;;7.79;76.00;101049.50;4908898;28;106017;-67
2021/09/06 04:56:28;;;;;;;12.43;6.20;;;;;;;7.90;76.25;101051.25;4910457;28;106298;-66
2021/09/06 04:58:53;;;;;;;11.65;6.28;;;;;;;8.02;76.64;101043.19;4911150;28;105921;-66
2021/09/06 05:01:19;;;;;;;10.40;6.40;;;;;;;8.12;76.55;101042.25;4908978;28;106220;-66
2021/09/06 05:03:44;;;;;;;16.83;9.18;;;;;;;8.25;76.42;101041.19;4908803;28;105928;-67
2021/09/06 05:06:10;;;;;;;16.00;10.65;;;;;;;8.35;75.84;101036.75;4909873;28;105770;-65
2021/09/06 05:08:35;;;;;;;8.20;5.70;;;;;;;8.46;76.45;101046.44;4918007;28;106371;-66
2021/09/06 05:11:01;;;;;;;9.57;5.82;;;;;;;8.56;76.17;101049.97;4924283;28;106325;-66
2021/09/06 05:13:26;;;;;;;9.88;5.88;;;;;;;8.68;76.04;101050.72;4908411;28;106620;-66
2021/09/06 05:15:52;;;;;;;9.85;5.90;;;;;;;8.80;75.98;101057.59;4908786;28;106014;-67
2021/09/06 05:18:17;;;;;;;7.20;5.18;;;;;;;8.92;75.78;101055.63;4909778;28;106302;-66
2021/09/06 05:20:43;;;;;;;12.70;5.70;;;;;;;9.07;75.70;101057.88;4908704;28;106302;-65
2021/09/06 05:23:08;;;;;;;11.40;5.40;;;;;;;9.20;75.55;101065.56;4918411;28;105965;-68
2021/09/06 05:25:34;;;;;;;12.45;4.88;;;;;;;9.33;75.45;101063.47;4927737;28;106076;-67
2021/09/06 05:27:59;;;;;;;7.38;4.68;;;;;;;9.43;75.27;101067.00;4928607;28;106323;-66
2021/09/06 05:30:25;;;;;;;8.90;5.15;;;;;;;9.56;75.46;101056.03;4928088;28;106345;-65
2021/09/06 05:32:50;;;;;;;10.02;4.93;;;;;;;9.72;75.38;101062.59;4927136;28;106070;-66
2021/09/06 05:35:15;;;;;;;14.75;6.07;;;;;;;9.83;74.97;101060.59;4927570;28;106557;-67
2021/09/06 05:37:41;;;;;;;7.35;5.03;;;;;;;9.97;74.95;101061.97;4928320;28;107196;-66
2021/09/06 05:40:07;;;;;;;15.65;9.93;;;;;;;10.11;74.62;101052.66;4927664;28;106216;-67
2021/09/06 05:42:32;;;;;;;12.45;7.38;;;;;;;10.25;74.36;101062.03;4927703;28;106626;-68
2021/09/06 05:44:58;;;;;;;9.93;5.07;;;;;;;10.34;74.24;101062.94;4927037;28;106563;-64
2021/09/06 05:47:23;;;;;;;17.02;7.50;;;;;;;10.44;73.94;101061.13;4928151;28;106107;-64
2021/09/06 05:49:49;;;;;;;9.45;5.25;;;;;;;10.49;73.66;101050.84;4927597;28;105953;-65
2021/09/06 05:52:14;;;;;;;11.20;5.00;;;;;;;10.63;73.57;101056.66;4926977;28;106124;-65
2021/09/06 05:54:40;;;;;;;13.98;5.95;;;;;;;10.77;73.32;101055.31;4926781;28;106108;-64
2021/09/06 05:57:05;;;;;;;10.32;5.63;;;;;;;10.90;73.87;101057.63;4927124;28;106101;-67
2021/09/06 05:59:31;;;;;;;12.52;5.55;;;;;;;10.99;73.25;101060.22;4928404;28;106234;-66
2021/09/06 06:01:56;;;;;;;12.65;5.60;;;;;;;11.15;73.58;101064.88;4930391;28;105980;-66
2021/09/06 06:04:21;;;;;;;11.27;5.18;;;;;;;11.29;72.87;101067.97;4930604;28;106041;-65
2021/09/06 06:06:47;;;;;;;13.48;5.63;;;;;;;11.46;72.38;101064.47;4931319;28;105949;-65
2021/09/06 06:09:13;;;;;;;11.73;6.55;;;;;;;11.57;72.38;101066.03;4930804;28;105960;-66
2021/09/06 06:11:40;;;;;;;12.25;5.72;;;;;;;11.77;72.04;101072.03;4930867;28;106579;-66
2021/09/06 06:14:05;;;;;;;15.35;5.47;;;;;;;11.95;72.09;101057.84;4930173;28;106147;-65
2021/09/06 06:16:31;;;;;;;12.57;5.93;;;;;;;12.06;71.61;101070.06;4931413;28;106070;-66
2021/09/06 06:18:57;;;;;;;19.27;5.90;;;;;;;12.22;71.73;101064.81;4930478;28;106225;-67
2021/09/06 06:21:23;;;;;;;10.20;5.40;;;;;;;12.42;70.98;101075.25;4930222;28;106215;-68
2021/09/06 06:23:48;;;;;;;10.20;5.32;;;;;;;12.61;70.73;101068.81;4918001;28;106555;-68
2021/09/06 06:26:14;;;;;;;9.18;5.50;;;;;;;12.77;70.79;101071.53;4915404;28;106325;-68
2021/09/06 06:28:40;;;;;;;8.77;5.03;;;;;;;13.02;70.75;101076.94;4912735;28;106188;-70
2021/09/06 06:31:06;;;;;;;8.68;5.30;;;;;;;13.25;70.09;101076.31;4912533;28;106054;-67
2021/09/06 06:33:31;;;;;;;8.27;5.53;;;;;;;13.36;69.18;101076.00;4912477;28;106307;-67
2021/09/06 06:35:58;;;;;;;11.18;5.13;;;;;;;13.47;68.95;101082.84;4914471;28;106001;-67
2021/09/06 06:38:24;;;;;;;9.52;5.43;;;;;;;13.62;68.95;101091.88;4915193;28;106270;-67
2021/09/06 06:40:49;;;;;;;10.95;5.10;;;;;;;13.86;68.78;101080.31;4912529;28;106000;-68
2021/09/06 06:43:15;;;;;;;9.23;5.07;;;;;;;14.06;68.13;101079.94;4912360;28;106088;-67
2021/09/06 06:45:40;;;;;;;10.95;5.88;;;;;;;14.32;67.89;101089.56;4913027;28;106372;-67
2021/09/06 06:48:05;;;;;;;11.35;4.88;;;;;;;14.51;66.88;101086.47;4912863;28;106245;-67
2021/09/06 06:50:31;;;;;;;8.93;5.82;;;;;;;14.67;66.42;101092.81;4912358;28;106397;-67
2021/09/06 06:52:56;;;;;;;6.63;4.50;;;;;;;14.76;65.90;101091.75;4912043;28;105866;-67
2021/09/06 06:55:22;;;;;;;11.98;5.10;;;;;;;14.86;64.75;101094.22;4912931;28;106414;-68
2021/09/06 06:57:47;;;;;;;9.32;5.10;;;;;;;14.94;64.80;101087.97;4912171;28;106368;-68
2021/09/06 07:00:13;;;;;;;12.55;6.32;;;;;;;15.15;64.52;101090.03;4911950;28;106225;-68
2021/09/06 07:02:39;;;;;;;9.05;5.80;;;;;;;15.41;63.99;101100.41;4912140;28;106107;-68
2021/09/06 07:05:06;;;;;;;15.05;5.03;;;;;;;15.51;63.12;101092.94;4913094;28;105883;-68
2021/09/06 07:07:31;;;;;;;11.05;5.50;;;;;;;15.71;62.64;101095.09;4911771;28;106164;-68
2021/09/06 07:09:56;;;;;;;6.85;4.13;;;;;;;15.84;61.73;101089.97;4911416;28;105955;-68
2021/09/06 07:12:22;;;;;;;9.90;4.80;;;;;;;15.94;61.20;101103.16;4911645;28;106103;-68
2021/09/06 07:14:47;;;;;;;10.50;4.20;;;;;;;15.87;60.05;101105.72;4912590;28;105989;-67
2021/09/06 07:17:12;;;;;;;8.05;4.50;;;;;;;16.00;59.74;101101.56;4912248;28;106268;-68
2021/09/06 07:19:38;;;;;;;7.28;4.15;;;;;;;16.11;59.63;101097.59;4911794;28;110782;-67
2021/09/06 07:22:03;;;;;;;6.60;3.78;;;;;;;16.16;58.78;101109.47;4911938;28;105965;-68
2021/09/06 07:24:28;;;;;;;12.27;4.78;;;;;;;16.15;58.11;101105.09;4913075;28;106167;-67
2021/09/06 07:26:54;;;;;;;12.88;7.03;;;;;;;16.22;58.53;101106.06;4910938;28;105933;-65
2021/09/06 07:29:19;;;;;;;9.02;3.92;;;;;;;16.34;57.92;101105.59;4911669;28;105791;-64
2021/09/06 07:31:46;;;;;;;9.38;4.10;;;;;;;16.50;57.43;101105.38;4910848;28;106090;-66
2021/09/06 07:34:11;;;;;;;8.10;3.10;;;;;;;16.64;56.11;101105.56;4912265;28;106203;-65
2021/09/06 07:36:36;;;;;;;6.75;3.05;;;;;;;16.85;56.02;101102.06;4911520;28;106255;-66
2021/09/06 07:39:03;;;;;;;10.30;3.10;;;;;;;17.15;55.30;101105.53;4910435;28;106122;-64
2021/09/06 07:41:28;;;;;;;5.82;3.05;;;;;;;17.11;53.73;101098.84;4910510;28;106210;-65
2021/09/06 07:43:54;;;;;;;5.10;2.75;;;;;;;17.18;53.53;101113.25;4911323;28;106060;-65
2021/09/06 07:46:19;;;;;;;5.70;3.08;;;;;;;17.23;52.97;101110.78;4911405;28;105954;-66
2021/09/06 07:48:45;;;;;;;8.85;2.72;;;;;;;17.30;52.66;101099.25;4911327;28;106058;-68
2021/09/06 07:51:10;;;;;;;8.00;2.83;;;;;;;17.55;52.65;101110.47;4911233;28;105987;-68
2021/09/06 07:53:35;;;;;;;7.38;2.45;;;;;;;17.74;50.88;101111.66;4912015;28;106494;-68
2021/09/06 07:56:01;;;;;;;8.57;2.42;;;;;;;17.69;50.47;101119.50;4911119;28;106188;-68
2021/09/06 07:58:27;;;;;;;3.63;1.95;;;;;;;17.79;50.04;101114.59;4910692;28;106176;-68
2021/09/06 08:00:52;;;;;;;5.43;2.10;;;;;;;17.95;49.68;101129.69;4911119;28;105986;-68
2021/09/06 08:03:17;;;;;;;4.90;2.47;;;;;;;18.23;49.44;101118.91;4912143;28;105854;-68
2021/09/06 08:05:43;;;;;;;4.40;2.10;;;;;;;18.56;47.51;101120.94;4911839;28;106125;-68
2021/09/06 08:08:08;;;;;;;7.30;2.28;;;;;;;18.76;46.79;101110.19;4911004;28;105930;-68
2021/09/06 08:10:33;;;;;;;5.63;2.10;;;;;;;18.97;46.40;101110.31;4911165;28;106490;-68
2021/09/06 08:12:59;;;;;;;4.82;2.25;;;;;;;19.21;45.66;101108.91;4911875;28;106044;-69
2021/09/06 08:15:26;;;;;;;3.70;2.13;;;;;;;19.50;45.11;101112.28;4911246;28;106237;-67
2021/09/06 08:17:52;;;;;;;4.80;2.72;;;;;;;19.80;44.20;101107.31;4912484;28;106084;-67
2021/09/06 08:20:18;;;;;;;4.50;1.67;;;;;;;20.09;41.78;101107.88;4927854;28;107570;-67
2021/09/06 08:22:44;;;;;;;5.35;2.05;;;;;;;20.13;41.51;101114.53;4930337;28;106427;-67
2021/09/06 08:25:11;;;;;;;3.40;1.80;;;;;;;20.14;41.37;101118.91;4930450;28;105916;-67
2021/09/06 08:27:37;;;;;;;6.03;2.22;;;;;;;20.23;40.39;101131.19;4930272;28;105801;-67
2021/09/06 08:30:04;;;;;;;6.07;1.70;;;;;;;20.27;40.17;101116.19;4930155;28;106068;-67
2021/09/06 08:32:30;;;;;;;5.40;1.88;;;;;;;20.59;39.71;101132.53;4930789;28;106298;-68
2021/09/06 08:34:55;;;;;;;5.40;2.00;;;;;;;20.74;37.78;101126.06;4930616;28;106133;-68
2021/09/06 08:37:22;;;;;;;5.97;2.03;;;;;;;20.88;38.12;101132.22;4929880;28;106023;-68
2021/09/06 08:39:47;;;;;;;7.15;2.53;;;;;;;21.39;37.79;101123.19;4929823;28;105948;-67
2021/09/06 08:42:13;;;;;;;5.80;2.22;;;;;;;22.52;36.59;101125.09;4930515;28;106464;-66
2021/09/06 08:44:39;;;;;;;4.47;1.48;;;;;;;24.83;33.77;101130.75;4929890;28;106015;-67
2021/09/06 08:47:04;;;;;;;3.97;1.45;;;;;;;27.48;29.95;101135.09;4929668;28;106634;-67
2021/09/06 08:49:30;;;;;;;4.05;1.90;;;;;;;30.01;26.16;101136.78;4929666;28;106004;-68
2021/09/06 08:51:56;;;;;;;5.22;1.75;;;;;;;32.17;23.14;101144.78;4930075;28;106160;-68
2021/09/06 08:54:21;;;;;;;3.53;1.65;;;;;;;32.63;20.35;101133.19;4929875;28;106244;-66
2021/09/06 08:56:47;;;;;;;7.60;1.65;;;;;;;33.28;19.92;101142.75;4929853;28;105855;-68
2021/09/06 08:59:13;;;;;;;4.35;1.58;;;;;;;34.29;19.43;101148.69;4929713;28;106039;-67
2021/09/06 09:01:44;;;;;;;5.22;1.63;;;;;;;35.11;17.98;101137.00;4930474;28;105912;-64
2021/09/06 09:04:14;;;;;;;4.93;1.58;;;;;;;35.98;17.32;101132.03;4929782;28;106171;-66
2021/09/06 09:06:39;;;;;;;3.05;1.63;;;;;;;36.08;16.77;101142.81;4929478;28;105824;-66
2021/09/06 09:09:04;;;;;;;6.25;1.60;;;;;;;36.54;16.16;101135.13;4927058;28;106129;-66
2021/09/06 09:11:30;;;;;;;4.72;2.45;;;;;;;37.25;15.93;101133.19;4929988;28;105961;-66
2021/09/06 09:13:55;;;;;;;5.47;1.70;;;;;;;37.86;15.67;101135.03;4929314;28;106459;-64
2021/09/06 09:16:20;;;;;;;3.90;1.80;;;;;;;38.56;14.86;101127.16;4929005;28;107093;-65
2021/09/06 09:18:46;;;;;;;3.25;1.77;;;;;;;39.51;14.25;101120.28;4928947;28;106032;-66
2021/09/06 09:21:12;;;;;;;7.50;1.85;;;;;;;40.04;14.07;101132.41;4930035;28;106073;-67
2021/09/06 09:23:44;;;;;;;6.03;2.05;;;;;;;40.15;13.37;101129.16;4929454;28;106265;-66
2021/09/06 09:26:10;;;;;;;9.85;2.20;;;;;;;39.09;13.46;101123.94;4929325;28;106505;-67
2021/09/06 09:28:44;;;;;;;4.32;1.75;;;;;;;39.23;13.07;101129.25;4929076;28;106076;-67
2021/09/06 09:31:13;;;;;;;4.68;2.10;;;;;;;39.50;13.19;101121.41;4929907;28;105841;-65
2021/09/06 09:33:50;;;;;;;5.40;2.10;;;;;;;39.84;13.00;101123.00;4928775;28;106084;-65
2021/09/06 09:36:33;;;;;;;4.93;1.75;;;;;;;40.68;12.37;101138.44;4929145;28;105929;-65
2021/09/06 09:39:08;;;;;;;4.63;1.80;;;;;;;40.87;12.05;101131.38;4928310;28;105985;-65
2021/09/06 09:41:33;;;;;;;10.68;2.40;;;;;;;41.66;11.80;101122.34;4929780;28;106018;-66
2021/09/06 09:44:11;;;;;;;8.02;1.70;;;;;;;42.03;11.22;101133.28;4929071;28;106321;-65
2021/09/06 09:46:37;;;;;;;3.30;1.67;;;;;;;41.49;11.50;101122.72;4928684;28;106887;-65
2021/09/06 09:49:10;;;;;;;3.58;1.90;;;;;;;40.54;11.26;101118.44;4928761;28;105903;-66
2021/09/06 09:51:36;;;;;;;6.88;2.08;;;;;;;40.84;11.08;101118.13;4929755;28;105877;-65
2021/09/06 09:54:03;;;;;;;6.25;2.05;;;;;;;41.80;10.89;101115.53;4929053;28;105923;-69
2021/09/06 09:56:30;;;;;;;5.63;2.10;;;;;;;42.14;10.39;101119.53;4928803;28;106035;-65
2021/09/06 09:58:55;;;;;;;4.68;2.15;;;;;;;41.77;10.43;101114.25;4928695;28;106352;-66
2021/09/06 10:01:21;;;;;;;5.93;2.00;;;;;;;40.85;11.01;101111.38;4929424;28;105993;-65
2021/09/06 10:03:46;;;;;;;5.80;2.03;;;;;;;40.98;10.84;101126.91;4929444;28;106198;-65
2021/09/06 10:06:12;;;;;;;3.40;1.65;;;;;;;40.87;10.79;101109.03;4924460;28;107404;-66
2021/09/06 10:08:40;;;;;;;5.03;1.92;;;;;;;41.58;10.71;101095.38;4926101;28;106126;-68
2021/09/06 10:11:12;;;;;;;6.20;1.67;;;;;;;41.37;10.68;101104.84;4928216;28;105869;-67
2021/09/06 10:13:42;;;;;;;5.18;1.70;;;;;;;40.70;10.76;101096.97;4927540;28;106166;-67
2021/09/06 10:16:08;;;;;;;3.50;1.73;;;;;;;41.83;10.01;101087.66;4927006;28;105975;-66
2021/09/06 10:18:38;;;;;;;2.85;1.70;;;;;;;42.27;9.82;101092.28;4926482;28;105949;-66
2021/09/06 10:21:17;;;;;;;4.47;1.63;;;;;;;42.63;9.38;101098.63;4927925;28;106588;-66
2021/09/06 10:23:48;;;;;;;4.13;1.73;;;;;;;42.00;9.39;101100.44;4927187;28;106148;-67
2021/09/06 10:26:14;;;;;;;4.07;1.55;;;;;;;41.37;10.04;101073.31;4926855;28;106811;-68
2021/09/06 10:28:40;;;;;;;5.30;1.70;;;;;;;41.18;10.18;101074.78;4926514;28;106037;-65
2021/09/06 10:31:16;;;;;;;4.15;1.50;;;;;;;41.15;10.31;101077.47;4927624;28;106050;-67
2021/09/06 10:33:43;;;;;;;8.13;2.15;;;;;;;41.93;10.14;101083.50;4926947;28;106019;-65
2021/09/06 10:36:11;;;;;;;2.90;1.30;;;;;;;42.85;9.56;101082.28;4926485;28;106675;-65
2021/09/06 10:38:40;;;;;;;3.10;1.97;;;;;;;43.48;9.21;101071.84;4924755;28;107614;-64
2021/09/06 10:41:13;;;;;;;2.80;1.43;;;;;;;44.01;8.97;101073.91;4910320;28;106819;-65
2021/09/06 10:43:44;;;;;;;3.22;1.50;;;;;;;44.08;8.61;101066.38;4909334;28;106263;-65
2021/09/06 10:46:10;;;;;;;10.32;1.77;;;;;;;43.86;8.61;101064.44;4910066;28;105946;-66
2021/09/06 10:48:35;;;;;;;5.13;2.15;;;;;;;43.63;9.00;101062.47;4912045;28;105817;-66
2021/09/06 10:51:02;;;;;;;2.67;1.50;;;;;;;43.43;8.67;101065.34;4913158;28;105889;-67
2021/09/06 10:53:28;;;;;;;4.63;1.48;;;;;;;43.01;8.74;101066.19;4912718;28;106299;-65
2021/09/06 10:55:56;;;;;;;4.20;1.48;;;;;;;43.57;8.41;101080.81;4912375;28;106661;-65
2021/09/06 10:58:26;;;;;;;4.03;1.55;;;;;;;43.41;8.35;101059.28;4911423;28;106286;-65
2021/09/06 11:00:57;;;;;;;7.53;2.15;;;;;;;43.54;8.18;101056.31;4913354;28;105883;-66
2021/09/06 11:03:32;;;;;;;3.63;1.42;;;;;;;43.38;8.55;101046.03;4912746;28;106015;-64
2021/09/06 11:05:58;;;;;;;3.15;1.40;;;;;;;44.51;8.00;101062.53;4912176;28;106084;-63
2021/09/06 11:08:32;;;;;;;6.22;1.50;;;;;;;45.10;7.51;101060.03;4912470;28;105931;-65
2021/09/06 11:10:59;;;;;;;3.28;1.75;;;;;;;44.91;7.32;101052.59;4912472;28;106171;-65
2021/09/06 11:13:39;;;;;;;3.40;1.63;;;;;;;45.40;7.34;101059.88;4911657;28;106128;-65